sensor_id;sensor_type;location;lat;lon;timestamp;P1;durP1;ratioP1;P2;durP2;ratioP2
43487;SDS011;29078;41.932;25.554;2022-10-17T00:00:38;17.02;;;9.90;;
43487;SDS011;29078;41.932;25.554;2022-10-17T00:03:04;12.98;;;9.77;;
43487;SDS011;29078;41.932;25.554;2022-10-17T00:05:29;13.18;;;9.60;;
43487;SDS011;29078;41.932;25.554;2022-10-17T00:07:55;17.75;;;9.50;;
43487;SDS011;29078;41.932;25.554;2022-10-17T00:10:20;13.25;;;9.40;;
43487;SDS011;29078;41.932;25.554;2022-10-17T00:12:46;13.23;;;9.70;;
43487;SDS011;29078;41.932;25.554;2022-10-17T00:15:14;16.13;;;9.65;;
43487;SDS011;29078;41.932;25.554;2022-10-17T00:17:41;16.73;;;9.90;;
43487;SDS011;29078;41.932;25.554;2022-10-17T00:20:06;11.68;;;9.05;;
43487;SDS011;29078;41.932;25.554;2022-10-17T00:22:32;12.02;;;10.13;;
43487;SDS011;29078;41.932;25.554;2022-10-17T00:24:58;12.82;;;9.18;;
43487;SDS011;29078;41.932;25.554;2022-10-17T00:27:23;13.77;;;9.63;;
43487;SDS011;29078;41.932;25.554;2022-10-17T00:29:49;13.18;;;8.82;;
43487;SDS011;29078;41.932;25.554;2022-10-17T00:32:16;15.40;;;10.00;;
43487;SDS011;29078;41.932;25.554;2022-10-17T00:34:41;11.90;;;8.90;;
43487;SDS011;29078;41.932;25.554;2022-10-17T00:37:07;14.00;;;8.20;;
43487;SDS011;29078;41.932;25.554;2022-10-17T00:39:32;13.98;;;9.07;;
43487;SDS011;29078;41.932;25.554;2022-10-17T00:41:58;11.90;;;8.13;;
43487;SDS011;29078;41.932;25.554;2022-10-17T00:46:58;10.25;;;8.10;;
43487;SDS011;29078;41.932;25.554;2022-10-17T00:49:32;14.48;;;8.15;;
43487;SDS011;29078;41.932;25.554;2022-10-17T00:52:01;11.25;;;7.25;;
43487;SDS011;29078;41.932;25.554;2022-10-17T00:54:40;11.45;;;7.65;;
43487;SDS011;29078;41.932;25.554;2022-10-17T00:57:09;12.85;;;7.25;;
43487;SDS011;29078;41.932;25.554;2022-10-17T00:59:36;16.38;;;8.10;;
43487;SDS011;29078;41.932;25.554;2022-10-17T01:02:05;12.50;;;7.78;;
43487;SDS011;29078;41.932;25.554;2022-10-17T01:04:34;11.35;;;7.40;;
43487;SDS011;29078;41.932;25.554;2022-10-17T01:07:00;12.18;;;8.57;;
43487;SDS011;29078;41.932;25.554;2022-10-17T01:09:26;13.20;;;7.45;;
43487;SDS011;29078;41.932;25.554;2022-10-17T01:14:30;10.20;;;6.93;;
43487;SDS011;29078;41.932;25.554;2022-10-17T01:25:59;11.60;;;6.85;;
43487;SDS011;29078;41.932;25.554;2022-10-17T01:28:57;10.60;;;7.38;;
43487;SDS011;29078;41.932;25.554;2022-10-17T01:31:36;10.95;;;6.72;;
43487;SDS011;29078;41.932;25.554;2022-10-17T01:39:40;10.20;;;6.90;;
43487;SDS011;29078;41.932;25.554;2022-10-17T01:42:12;14.10;;;7.93;;
43487;SDS011;29078;41.932;25.554;2022-10-17T01:47:33;9.07;;;6.47;;
43487;SDS011;29078;41.932;25.554;2022-10-17T01:50:18;9.40;;;7.00;;
43487;SDS011;29078;41.932;25.554;2022-10-17T01:52:50;9.38;;;6.88;;
43487;SDS011;29078;41.932;25.554;2022-10-17T01:55:22;12.73;;;6.85;;
43487;SDS011;29078;41.932;25.554;2022-10-17T01:57:56;12.30;;;6.82;;
43487;SDS011;29078;41.932;25.554;2022-10-17T02:00:27;8.38;;;7.18;;
43487;SDS011;29078;41.932;25.554;2022-10-17T02:02:56;8.98;;;7.63;;
43487;SDS011;29078;41.932;25.554;2022-10-17T02:05:25;12.43;;;6.72;;
43487;SDS011;29078;41.932;25.554;2022-10-17T02:07:56;9.70;;;6.78;;
43487;SDS011;29078;41.932;25.554;2022-10-17T02:10:26;13.55;;;7.20;;
43487;SDS011;29078;41.932;25.554;2022-10-17T02:13:05;10.25;;;7.50;;
43487;SDS011;29078;41.932;25.554;2022-10-17T02:30:18;15.23;;;8.20;;
43487;SDS011;29078;41.932;25.554;2022-10-17T02:32:54;13.00;;;8.68;;
43487;SDS011;29078;41.932;25.554;2022-10-17T02:35:29;13.35;;;7.47;;
43487;SDS011;29078;41.932;25.554;2022-10-17T02:37:59;13.88;;;7.75;;
43487;SDS011;29078;41.932;25.554;2022-10-17T02:40:27;12.48;;;8.02;;
43487;SDS011;29078;41.932;25.554;2022-10-17T02:42:55;10.45;;;8.50;;
43487;SDS011;29078;41.932;25.554;2022-10-17T02:45:23;13.80;;;8.40;;
43487;SDS011;29078;41.932;25.554;2022-10-17T02:47:59;11.60;;;8.23;;
43487;SDS011;29078;41.932;25.554;2022-10-17T02:53:19;11.95;;;8.07;;
43487;SDS011;29078;41.932;25.554;2022-10-17T02:55:56;10.88;;;8.05;;
43487;SDS011;29078;41.932;25.554;2022-10-17T02:58:27;16.05;;;8.20;;
43487;SDS011;29078;41.932;25.554;2022-10-17T03:00:57;10.75;;;7.18;;
43487;SDS011;29078;41.932;25.554;2022-10-17T03:03:30;13.68;;;7.78;;
43487;SDS011;29078;41.932;25.554;2022-10-17T03:05:56;10.25;;;8.43;;
43487;SDS011;29078;41.932;25.554;2022-10-17T03:08:22;10.98;;;7.22;;
43487;SDS011;29078;41.932;25.554;2022-10-17T03:10:48;8.50;;;6.75;;
43487;SDS011;29078;41.932;25.554;2022-10-17T03:13:14;13.35;;;7.60;;
43487;SDS011;29078;41.932;25.554;2022-10-17T03:15:40;9.15;;;6.72;;
43487;SDS011;29078;41.932;25.554;2022-10-17T03:18:06;9.85;;;6.75;;
43487;SDS011;29078;41.932;25.554;2022-10-17T03:20:31;12.73;;;7.40;;
43487;SDS011;29078;41.932;25.554;2022-10-17T03:22:57;8.60;;;6.50;;
43487;SDS011;29078;41.932;25.554;2022-10-17T03:25:22;10.32;;;6.93;;
43487;SDS011;29078;41.932;25.554;2022-10-17T03:27:48;10.80;;;6.57;;
43487;SDS011;29078;41.932;25.554;2022-10-17T03:30:13;9.52;;;6.85;;
43487;SDS011;29078;41.932;25.554;2022-10-17T03:32:38;11.85;;;7.28;;
43487;SDS011;29078;41.932;25.554;2022-10-17T03:35:04;10.23;;;6.65;;
43487;SDS011;29078;41.932;25.554;2022-10-17T03:37:29;14.50;;;7.97;;
43487;SDS011;29078;41.932;25.554;2022-10-17T03:39:55;10.77;;;6.85;;
43487;SDS011;29078;41.932;25.554;2022-10-17T03:42:20;9.55;;;6.95;;
43487;SDS011;29078;41.932;25.554;2022-10-17T03:44:46;13.30;;;7.78;;
43487;SDS011;29078;41.932;25.554;2022-10-17T03:47:11;11.88;;;7.82;;
43487;SDS011;29078;41.932;25.554;2022-10-17T03:49:36;15.57;;;8.52;;
43487;SDS011;29078;41.932;25.554;2022-10-17T03:52:02;10.63;;;8.00;;
43487;SDS011;29078;41.932;25.554;2022-10-17T03:54:27;13.55;;;8.30;;
43487;SDS011;29078;41.932;25.554;2022-10-17T03:56:53;9.77;;;7.15;;
43487;SDS011;29078;41.932;25.554;2022-10-17T03:59:18;10.23;;;7.47;;
43487;SDS011;29078;41.932;25.554;2022-10-17T04:01:43;12.25;;;6.78;;
43487;SDS011;29078;41.932;25.554;2022-10-17T04:04:09;11.43;;;6.47;;
43487;SDS011;29078;41.932;25.554;2022-10-17T04:06:35;11.90;;;7.07;;
43487;SDS011;29078;41.932;25.554;2022-10-17T04:09:01;12.40;;;7.13;;
43487;SDS011;29078;41.932;25.554;2022-10-17T04:11:26;10.85;;;7.50;;
43487;SDS011;29078;41.932;25.554;2022-10-17T04:13:52;11.20;;;7.93;;
43487;SDS011;29078;41.932;25.554;2022-10-17T04:16:19;13.05;;;8.05;;
43487;SDS011;29078;41.932;25.554;2022-10-17T04:18:45;13.90;;;10.63;;
43487;SDS011;29078;41.932;25.554;2022-10-17T04:21:10;10.27;;;9.15;;
43487;SDS011;29078;41.932;25.554;2022-10-17T04:23:37;13.63;;;9.88;;
43487;SDS011;29078;41.932;25.554;2022-10-17T04:26:02;12.50;;;8.95;;
43487;SDS011;29078;41.932;25.554;2022-10-17T04:28:29;15.10;;;8.93;;
43487;SDS011;29078;41.932;25.554;2022-10-17T04:30:56;13.00;;;9.55;;
43487;SDS011;29078;41.932;25.554;2022-10-17T04:33:30;13.73;;;8.77;;
43487;SDS011;29078;41.932;25.554;2022-10-17T04:35:59;16.75;;;9.52;;
43487;SDS011;29078;41.932;25.554;2022-10-17T04:38:27;14.27;;;10.85;;
43487;SDS011;29078;41.932;25.554;2022-10-17T04:40:53;11.25;;;9.35;;
43487;SDS011;29078;41.932;25.554;2022-10-17T04:43:20;15.07;;;9.73;;
43487;SDS011;29078;41.932;25.554;2022-10-17T04:45:46;12.68;;;9.93;;
43487;SDS011;29078;41.932;25.554;2022-10-17T04:48:11;17.48;;;9.98;;
43487;SDS011;29078;41.932;25.554;2022-10-17T04:50:36;14.88;;;9.32;;
43487;SDS011;29078;41.932;25.554;2022-10-17T04:53:02;15.80;;;9.57;;
43487;SDS011;29078;41.932;25.554;2022-10-17T04:55:27;13.07;;;8.45;;
43487;SDS011;29078;41.932;25.554;2022-10-17T04:57:53;18.40;;;9.27;;
43487;SDS011;29078;41.932;25.554;2022-10-17T05:00:18;17.13;;;9.20;;
43487;SDS011;29078;41.932;25.554;2022-10-17T05:02:44;23.40;;;10.30;;
43487;SDS011;29078;41.932;25.554;2022-10-17T05:05:09;13.57;;;9.38;;
43487;SDS011;29078;41.932;25.554;2022-10-17T05:07:38;12.38;;;8.95;;
43487;SDS011;29078;41.932;25.554;2022-10-17T05:10:04;11.77;;;8.35;;
43487;SDS011;29078;41.932;25.554;2022-10-17T05:12:29;12.90;;;7.97;;
43487;SDS011;29078;41.932;25.554;2022-10-17T05:14:55;12.80;;;8.43;;
43487;SDS011;29078;41.932;25.554;2022-10-17T05:17:20;14.52;;;10.23;;
43487;SDS011;29078;41.932;25.554;2022-10-17T05:19:45;18.42;;;9.98;;
43487;SDS011;29078;41.932;25.554;2022-10-17T05:22:11;17.40;;;11.70;;
43487;SDS011;29078;41.932;25.554;2022-10-17T05:24:37;21.05;;;11.90;;
43487;SDS011;29078;41.932;25.554;2022-10-17T05:27:02;21.73;;;13.00;;
43487;SDS011;29078;41.932;25.554;2022-10-17T05:29:28;23.67;;;12.80;;
43487;SDS011;29078;41.932;25.554;2022-10-17T05:31:53;21.25;;;11.48;;
43487;SDS011;29078;41.932;25.554;2022-10-17T05:34:18;22.80;;;12.55;;
43487;SDS011;29078;41.932;25.554;2022-10-17T05:36:44;18.70;;;11.15;;
43487;SDS011;29078;41.932;25.554;2022-10-17T05:39:10;16.15;;;10.63;;
43487;SDS011;29078;41.932;25.554;2022-10-17T05:41:38;20.45;;;12.70;;
43487;SDS011;29078;41.932;25.554;2022-10-17T05:44:04;19.02;;;11.70;;
43487;SDS011;29078;41.932;25.554;2022-10-17T05:46:29;20.20;;;12.48;;
43487;SDS011;29078;41.932;25.554;2022-10-17T05:48:55;17.15;;;11.18;;
43487;SDS011;29078;41.932;25.554;2022-10-17T05:51:20;21.25;;;11.27;;
43487;SDS011;29078;41.932;25.554;2022-10-17T05:53:46;17.38;;;11.10;;
43487;SDS011;29078;41.932;25.554;2022-10-17T05:56:11;20.85;;;11.75;;
43487;SDS011;29078;41.932;25.554;2022-10-17T05:58:39;19.75;;;12.30;;
43487;SDS011;29078;41.932;25.554;2022-10-17T06:01:06;16.73;;;10.23;;
43487;SDS011;29078;41.932;25.554;2022-10-17T06:03:32;16.13;;;10.93;;
43487;SDS011;29078;41.932;25.554;2022-10-17T06:06:04;18.05;;;10.68;;
43487;SDS011;29078;41.932;25.554;2022-10-17T06:08:31;16.27;;;10.77;;
43487;SDS011;29078;41.932;25.554;2022-10-17T06:10:56;19.80;;;11.00;;
43487;SDS011;29078;41.932;25.554;2022-10-17T06:13:22;28.58;;;10.15;;
43487;SDS011;29078;41.932;25.554;2022-10-17T06:15:47;23.10;;;11.27;;
43487;SDS011;29078;41.932;25.554;2022-10-17T06:18:13;13.75;;;9.82;;
43487;SDS011;29078;41.932;25.554;2022-10-17T06:20:39;13.05;;;9.40;;
43487;SDS011;29078;41.932;25.554;2022-10-17T06:23:04;13.60;;;10.75;;
43487;SDS011;29078;41.932;25.554;2022-10-17T06:25:30;17.08;;;11.50;;
43487;SDS011;29078;41.932;25.554;2022-10-17T06:27:56;18.33;;;13.15;;
43487;SDS011;29078;41.932;25.554;2022-10-17T06:30:21;17.85;;;11.60;;
43487;SDS011;29078;41.932;25.554;2022-10-17T06:32:47;17.58;;;12.60;;
43487;SDS011;29078;41.932;25.554;2022-10-17T06:35:12;14.70;;;9.95;;
43487;SDS011;29078;41.932;25.554;2022-10-17T06:37:38;13.93;;;9.57;;
43487;SDS011;29078;41.932;25.554;2022-10-17T06:40:04;13.18;;;9.15;;
43487;SDS011;29078;41.932;25.554;2022-10-17T06:42:31;16.00;;;11.38;;
43487;SDS011;29078;41.932;25.554;2022-10-17T06:44:57;23.05;;;16.63;;
43487;SDS011;29078;41.932;25.554;2022-10-17T06:47:23;16.60;;;9.20;;
43487;SDS011;29078;41.932;25.554;2022-10-17T06:49:48;10.27;;;7.82;;
43487;SDS011;29078;41.932;25.554;2022-10-17T06:52:13;11.25;;;6.80;;
43487;SDS011;29078;41.932;25.554;2022-10-17T06:54:41;14.32;;;9.20;;
43487;SDS011;29078;41.932;25.554;2022-10-17T06:57:07;11.50;;;8.35;;
43487;SDS011;29078;41.932;25.554;2022-10-17T06:59:32;9.23;;;7.45;;
43487;SDS011;29078;41.932;25.554;2022-10-17T07:01:59;10.88;;;7.68;;
43487;SDS011;29078;41.932;25.554;2022-10-17T07:04:25;10.93;;;7.50;;
43487;SDS011;29078;41.932;25.554;2022-10-17T07:06:51;10.20;;;7.45;;
43487;SDS011;29078;41.932;25.554;2022-10-17T07:09:16;9.23;;;7.00;;
43487;SDS011;29078;41.932;25.554;2022-10-17T07:11:42;7.60;;;6.68;;
43487;SDS011;29078;41.932;25.554;2022-10-17T07:14:07;9.82;;;7.25;;
43487;SDS011;29078;41.932;25.554;2022-10-17T07:16:33;10.10;;;7.15;;
43487;SDS011;29078;41.932;25.554;2022-10-17T07:18:58;8.50;;;6.90;;
43487;SDS011;29078;41.932;25.554;2022-10-17T07:21:24;10.02;;;6.90;;
43487;SDS011;29078;41.932;25.554;2022-10-17T07:23:49;8.27;;;6.85;;
43487;SDS011;29078;41.932;25.554;2022-10-17T07:26:15;9.65;;;6.85;;
43487;SDS011;29078;41.932;25.554;2022-10-17T07:28:42;9.63;;;7.57;;
43487;SDS011;29078;41.932;25.554;2022-10-17T07:31:10;8.88;;;7.38;;
43487;SDS011;29078;41.932;25.554;2022-10-17T07:33:41;9.82;;;6.43;;
43487;SDS011;29078;41.932;25.554;2022-10-17T07:36:07;18.25;;;7.82;;
43487;SDS011;29078;41.932;25.554;2022-10-17T07:38:33;11.63;;;6.70;;
43487;SDS011;29078;41.932;25.554;2022-10-17T07:41:00;13.82;;;7.45;;
43487;SDS011;29078;41.932;25.554;2022-10-17T07:43:27;12.93;;;8.88;;
43487;SDS011;29078;41.932;25.554;2022-10-17T07:45:53;9.88;;;7.13;;
43487;SDS011;29078;41.932;25.554;2022-10-17T07:48:19;12.20;;;8.23;;
43487;SDS011;29078;41.932;25.554;2022-10-17T07:50:46;9.98;;;7.88;;
43487;SDS011;29078;41.932;25.554;2022-10-17T07:53:12;11.43;;;7.95;;
43487;SDS011;29078;41.932;25.554;2022-10-17T07:55:38;13.15;;;8.48;;
43487;SDS011;29078;41.932;25.554;2022-10-17T07:58:05;8.93;;;6.43;;
43487;SDS011;29078;41.932;25.554;2022-10-17T08:00:31;12.40;;;7.30;;
43487;SDS011;29078;41.932;25.554;2022-10-17T08:02:56;13.48;;;7.53;;
43487;SDS011;29078;41.932;25.554;2022-10-17T08:05:22;9.32;;;7.15;;
43487;SDS011;29078;41.932;25.554;2022-10-17T08:07:47;8.60;;;6.60;;
43487;SDS011;29078;41.932;25.554;2022-10-17T08:10:13;11.23;;;7.18;;
43487;SDS011;29078;41.932;25.554;2022-10-17T08:12:39;10.52;;;8.00;;
43487;SDS011;29078;41.932;25.554;2022-10-17T08:15:05;11.38;;;6.63;;
43487;SDS011;29078;41.932;25.554;2022-10-17T08:17:33;13.30;;;8.93;;
43487;SDS011;29078;41.932;25.554;2022-10-17T08:19:59;8.52;;;7.05;;
43487;SDS011;29078;41.932;25.554;2022-10-17T08:22:24;11.15;;;7.43;;
43487;SDS011;29078;41.932;25.554;2022-10-17T08:24:50;9.65;;;8.50;;
43487;SDS011;29078;41.932;25.554;2022-10-17T08:27:15;9.82;;;7.40;;
43487;SDS011;29078;41.932;25.554;2022-10-17T08:29:45;8.18;;;6.18;;
43487;SDS011;29078;41.932;25.554;2022-10-17T08:32:12;9.63;;;7.40;;
43487;SDS011;29078;41.932;25.554;2022-10-17T08:34:38;5.13;;;4.63;;
43487;SDS011;29078;41.932;25.554;2022-10-17T08:37:03;10.55;;;7.47;;
43487;SDS011;29078;41.932;25.554;2022-10-17T08:39:29;8.23;;;5.45;;
43487;SDS011;29078;41.932;25.554;2022-10-17T08:47:21;12.75;;;10.25;;
43487;SDS011;29078;41.932;25.554;2022-10-17T08:49:58;12.18;;;9.40;;
43487;SDS011;29078;41.932;25.554;2022-10-17T08:55:14;7.88;;;6.20;;
43487;SDS011;29078;41.932;25.554;2022-10-17T08:57:42;7.03;;;4.15;;
43487;SDS011;29078;41.932;25.554;2022-10-17T09:00:16;9.45;;;7.93;;
43487;SDS011;29078;41.932;25.554;2022-10-17T09:05:35;7.28;;;4.13;;
43487;SDS011;29078;41.932;25.554;2022-10-17T09:18:59;4.78;;;3.40;;
43487;SDS011;29078;41.932;25.554;2022-10-17T09:24:18;6.20;;;3.78;;
43487;SDS011;29078;41.932;25.554;2022-10-17T09:27:02;6.75;;;4.00;;
43487;SDS011;29078;41.932;25.554;2022-10-17T09:29:29;5.22;;;4.00;;
43487;SDS011;29078;41.932;25.554;2022-10-17T09:32:02;4.40;;;3.67;;
43487;SDS011;29078;41.932;25.554;2022-10-17T09:34:35;4.90;;;3.28;;
43487;SDS011;29078;41.932;25.554;2022-10-17T09:37:01;8.05;;;4.18;;
43487;SDS011;29078;41.932;25.554;2022-10-17T09:39:27;5.03;;;3.67;;
43487;SDS011;29078;41.932;25.554;2022-10-17T09:41:58;6.75;;;3.47;;
43487;SDS011;29078;41.932;25.554;2022-10-17T09:49:41;6.20;;;5.30;;
43487;SDS011;29078;41.932;25.554;2022-10-17T09:52:16;6.00;;;4.75;;
43487;SDS011;29078;41.932;25.554;2022-10-17T09:54:52;3.85;;;3.38;;
43487;SDS011;29078;41.932;25.554;2022-10-17T09:57:21;5.75;;;3.88;;
43487;SDS011;29078;41.932;25.554;2022-10-17T09:59:54;6.32;;;4.65;;
43487;SDS011;29078;41.932;25.554;2022-10-17T10:02:23;6.35;;;5.28;;
43487;SDS011;29078;41.932;25.554;2022-10-17T10:07:21;8.18;;;4.32;;
43487;SDS011;29078;41.932;25.554;2022-10-17T10:09:48;7.00;;;5.68;;
43487;SDS011;29078;41.932;25.554;2022-10-17T10:12:24;6.75;;;4.35;;
43487;SDS011;29078;41.932;25.554;2022-10-17T10:14:51;7.28;;;5.50;;
43487;SDS011;29078;41.932;25.554;2022-10-17T10:17:37;6.18;;;4.22;;
43487;SDS011;29078;41.932;25.554;2022-10-17T10:25:48;13.73;;;7.90;;
43487;SDS011;29078;41.932;25.554;2022-10-17T10:28:32;6.45;;;4.97;;
43487;SDS011;29078;41.932;25.554;2022-10-17T10:31:01;5.93;;;5.15;;
43487;SDS011;29078;41.932;25.554;2022-10-17T10:33:28;5.88;;;3.67;;
43487;SDS011;29078;41.932;25.554;2022-10-17T10:35:58;8.38;;;4.50;;
43487;SDS011;29078;41.932;25.554;2022-10-17T10:38:26;7.60;;;4.47;;
43487;SDS011;29078;41.932;25.554;2022-10-17T10:40:56;6.20;;;4.90;;
43487;SDS011;29078;41.932;25.554;2022-10-17T10:43:34;6.03;;;4.30;;
43487;SDS011;29078;41.932;25.554;2022-10-17T10:46:02;7.53;;;5.22;;
43487;SDS011;29078;41.932;25.554;2022-10-17T10:48:34;7.15;;;4.32;;
43487;SDS011;29078;41.932;25.554;2022-10-17T10:51:09;5.95;;;3.92;;
43487;SDS011;29078;41.932;25.554;2022-10-17T10:53:42;4.15;;;3.72;;
43487;SDS011;29078;41.932;25.554;2022-10-17T11:01:50;6.90;;;5.20;;
43487;SDS011;29078;41.932;25.554;2022-10-17T11:04:31;5.57;;;4.13;;
43487;SDS011;29078;41.932;25.554;2022-10-17T11:07:07;8.48;;;4.47;;
43487;SDS011;29078;41.932;25.554;2022-10-17T11:09:46;8.15;;;4.18;;
43487;SDS011;29078;41.932;25.554;2022-10-17T11:17:44;7.72;;;4.10;;
43487;SDS011;29078;41.932;25.554;2022-10-17T11:20:22;6.22;;;4.30;;
43487;SDS011;29078;41.932;25.554;2022-10-17T11:23:01;5.38;;;3.50;;
43487;SDS011;29078;41.932;25.554;2022-10-17T11:25:49;9.52;;;4.70;;
43487;SDS011;29078;41.932;25.554;2022-10-17T11:28:18;12.02;;;4.88;;
43487;SDS011;29078;41.932;25.554;2022-10-17T11:31:05;10.07;;;4.80;;
43487;SDS011;29078;41.932;25.554;2022-10-17T11:33:55;9.82;;;4.85;;
43487;SDS011;29078;41.932;25.554;2022-10-17T11:36:29;9.55;;;5.05;;
43487;SDS011;29078;41.932;25.554;2022-10-17T11:41:54;9.40;;;5.22;;
43487;SDS011;29078;41.932;25.554;2022-10-17T11:44:28;7.15;;;5.40;;
43487;SDS011;29078;41.932;25.554;2022-10-17T11:49:44;7.22;;;4.13;;
43487;SDS011;29078;41.932;25.554;2022-10-17T12:05:56;5.45;;;4.10;;
43487;SDS011;29078;41.932;25.554;2022-10-17T12:17:23;14.30;;;4.38;;
43487;SDS011;29078;41.932;25.554;2022-10-17T12:23:16;16.08;;;11.85;;
43487;SDS011;29078;41.932;25.554;2022-10-17T12:30:58;7.93;;;5.55;;
43487;SDS011;29078;41.932;25.554;2022-10-17T12:38:45;10.40;;;7.70;;
43487;SDS011;29078;41.932;25.554;2022-10-17T12:41:14;9.75;;;6.18;;
43487;SDS011;29078;41.932;25.554;2022-10-17T12:46:08;7.05;;;4.78;;
43487;SDS011;29078;41.932;25.554;2022-10-17T12:51:19;7.60;;;4.30;;
43487;SDS011;29078;41.932;25.554;2022-10-17T12:54:07;10.75;;;7.68;;
43487;SDS011;29078;41.932;25.554;2022-10-17T12:56:38;13.32;;;6.20;;
43487;SDS011;29078;41.932;25.554;2022-10-17T12:59:08;6.38;;;5.47;;
43487;SDS011;29078;41.932;25.554;2022-10-17T13:01:39;7.70;;;5.03;;
43487;SDS011;29078;41.932;25.554;2022-10-17T13:04:09;7.55;;;4.93;;
43487;SDS011;29078;41.932;25.554;2022-10-17T13:06:36;7.78;;;4.75;;
43487;SDS011;29078;41.932;25.554;2022-10-17T13:12:05;7.97;;;4.75;;
43487;SDS011;29078;41.932;25.554;2022-10-17T13:14:42;9.90;;;5.40;;
43487;SDS011;29078;41.932;25.554;2022-10-17T13:17:20;6.95;;;4.30;;
43487;SDS011;29078;41.932;25.554;2022-10-17T13:19:47;6.47;;;4.68;;
43487;SDS011;29078;41.932;25.554;2022-10-17T13:22:17;9.38;;;5.25;;
43487;SDS011;29078;41.932;25.554;2022-10-17T13:24:45;8.80;;;4.88;;
43487;SDS011;29078;41.932;25.554;2022-10-17T13:29:54;6.22;;;4.85;;
43487;SDS011;29078;41.932;25.554;2022-10-17T13:32:22;10.35;;;5.13;;
43487;SDS011;29078;41.932;25.554;2022-10-17T13:35:05;11.77;;;4.57;;
43487;SDS011;29078;41.932;25.554;2022-10-17T13:37:35;8.98;;;4.47;;
43487;SDS011;29078;41.932;25.554;2022-10-17T13:40:03;8.65;;;4.53;;
43487;SDS011;29078;41.932;25.554;2022-10-17T13:42:29;7.53;;;4.28;;
43487;SDS011;29078;41.932;25.554;2022-10-17T13:45:02;6.75;;;4.72;;
43487;SDS011;29078;41.932;25.554;2022-10-17T13:47:29;8.27;;;5.25;;
43487;SDS011;29078;41.932;25.554;2022-10-17T13:50:00;7.78;;;4.38;;
43487;SDS011;29078;41.932;25.554;2022-10-17T13:52:27;11.68;;;6.00;;
43487;SDS011;29078;41.932;25.554;2022-10-17T13:54:54;13.15;;;5.68;;
43487;SDS011;29078;41.932;25.554;2022-10-17T13:57:29;6.97;;;4.68;;
43487;SDS011;29078;41.932;25.554;2022-10-17T14:00:14;9.15;;;5.53;;
43487;SDS011;29078;41.932;25.554;2022-10-17T14:02:43;7.40;;;4.47;;
43487;SDS011;29078;41.932;25.554;2022-10-17T14:05:11;7.50;;;4.07;;
43487;SDS011;29078;41.932;25.554;2022-10-17T14:10:24;10.38;;;6.28;;
43487;SDS011;29078;41.932;25.554;2022-10-17T14:12:55;7.72;;;4.13;;
43487;SDS011;29078;41.932;25.554;2022-10-17T14:15:26;8.52;;;5.57;;
43487;SDS011;29078;41.932;25.554;2022-10-17T14:18:05;8.38;;;6.03;;
43487;SDS011;29078;41.932;25.554;2022-10-17T14:20:32;11.75;;;6.90;;
43487;SDS011;29078;41.932;25.554;2022-10-17T14:22:59;14.07;;;10.00;;
43487;SDS011;29078;41.932;25.554;2022-10-17T14:28:11;13.65;;;8.00;;
43487;SDS011;29078;41.932;25.554;2022-10-17T14:30:40;7.28;;;5.35;;
43487;SDS011;29078;41.932;25.554;2022-10-17T14:33:13;11.73;;;7.18;;
43487;SDS011;29078;41.932;25.554;2022-10-17T14:35:49;11.95;;;5.45;;
43487;SDS011;29078;41.932;25.554;2022-10-17T14:38:16;14.10;;;9.65;;
43487;SDS011;29078;41.932;25.554;2022-10-17T14:40:48;10.55;;;5.90;;
43487;SDS011;29078;41.932;25.554;2022-10-17T14:43:18;12.40;;;6.95;;
43487;SDS011;29078;41.932;25.554;2022-10-17T14:45:46;8.32;;;5.07;;
43487;SDS011;29078;41.932;25.554;2022-10-17T14:48:13;11.38;;;4.70;;
43487;SDS011;29078;41.932;25.554;2022-10-17T14:50:41;8.05;;;4.47;;
43487;SDS011;29078;41.932;25.554;2022-10-17T14:53:27;10.23;;;4.55;;
43487;SDS011;29078;41.932;25.554;2022-10-17T14:55:57;8.63;;;4.80;;
43487;SDS011;29078;41.932;25.554;2022-10-17T14:58:26;13.85;;;5.15;;
43487;SDS011;29078;41.932;25.554;2022-10-17T15:00:53;7.28;;;4.40;;
43487;SDS011;29078;41.932;25.554;2022-10-17T15:03:19;12.77;;;5.20;;
43487;SDS011;29078;41.932;25.554;2022-10-17T15:05:45;11.52;;;5.28;;
43487;SDS011;29078;41.932;25.554;2022-10-17T15:08:12;10.88;;;5.35;;
43487;SDS011;29078;41.932;25.554;2022-10-17T15:10:39;8.75;;;5.20;;
43487;SDS011;29078;41.932;25.554;2022-10-17T15:13:08;9.88;;;5.47;;
43487;SDS011;29078;41.932;25.554;2022-10-17T15:15:35;15.02;;;5.70;;
43487;SDS011;29078;41.932;25.554;2022-10-17T15:18:02;13.48;;;5.90;;
43487;SDS011;29078;41.932;25.554;2022-10-17T15:20:28;12.82;;;6.55;;
43487;SDS011;29078;41.932;25.554;2022-10-17T15:22:55;23.00;;;8.13;;
43487;SDS011;29078;41.932;25.554;2022-10-17T15:25:23;16.55;;;8.05;;
43487;SDS011;29078;41.932;25.554;2022-10-17T15:27:50;18.13;;;8.15;;
43487;SDS011;29078;41.932;25.554;2022-10-17T15:30:21;12.98;;;7.10;;
43487;SDS011;29078;41.932;25.554;2022-10-17T15:32:50;13.75;;;6.72;;
43487;SDS011;29078;41.932;25.554;2022-10-17T15:35:16;12.52;;;6.78;;
43487;SDS011;29078;41.932;25.554;2022-10-17T15:37:42;13.98;;;7.22;;
43487;SDS011;29078;41.932;25.554;2022-10-17T15:40:20;17.58;;;7.95;;
43487;SDS011;29078;41.932;25.554;2022-10-17T15:42:47;14.65;;;8.05;;
43487;SDS011;29078;41.932;25.554;2022-10-17T15:45:14;17.02;;;9.13;;
43487;SDS011;29078;41.932;25.554;2022-10-17T15:47:42;16.02;;;9.07;;
43487;SDS011;29078;41.932;25.554;2022-10-17T15:52:39;17.80;;;8.40;;
43487;SDS011;29078;41.932;25.554;2022-10-17T15:55:05;17.90;;;9.90;;
43487;SDS011;29078;41.932;25.554;2022-10-17T15:57:33;18.20;;;9.38;;
43487;SDS011;29078;41.932;25.554;2022-10-17T16:00:03;16.67;;;10.45;;
43487;SDS011;29078;41.932;25.554;2022-10-17T16:02:30;18.08;;;9.88;;
43487;SDS011;29078;41.932;25.554;2022-10-17T16:04:57;18.27;;;10.27;;
43487;SDS011;29078;41.932;25.554;2022-10-17T16:07:23;17.73;;;9.70;;
43487;SDS011;29078;41.932;25.554;2022-10-17T16:09:48;21.35;;;9.77;;
43487;SDS011;29078;41.932;25.554;2022-10-17T16:12:15;21.92;;;8.88;;
43487;SDS011;29078;41.932;25.554;2022-10-17T16:14:42;21.00;;;10.32;;
43487;SDS011;29078;41.932;25.554;2022-10-17T16:17:12;18.45;;;11.32;;
43487;SDS011;29078;41.932;25.554;2022-10-17T16:19:39;20.00;;;10.60;;
43487;SDS011;29078;41.932;25.554;2022-10-17T16:22:04;20.55;;;9.85;;
43487;SDS011;29078;41.932;25.554;2022-10-17T16:24:30;14.57;;;9.07;;
43487;SDS011;29078;41.932;25.554;2022-10-17T16:26:56;18.95;;;9.60;;
43487;SDS011;29078;41.932;25.554;2022-10-17T16:29:21;18.73;;;9.63;;
43487;SDS011;29078;41.932;25.554;2022-10-17T16:31:46;18.50;;;8.88;;
43487;SDS011;29078;41.932;25.554;2022-10-17T16:34:12;18.38;;;8.85;;
43487;SDS011;29078;41.932;25.554;2022-10-17T16:36:39;14.90;;;9.00;;
43487;SDS011;29078;41.932;25.554;2022-10-17T16:39:04;15.93;;;8.98;;
43487;SDS011;29078;41.932;25.554;2022-10-17T16:41:34;21.75;;;8.82;;
43487;SDS011;29078;41.932;25.554;2022-10-17T16:44:03;12.70;;;8.77;;
43487;SDS011;29078;41.932;25.554;2022-10-17T16:46:30;18.77;;;8.43;;
43487;SDS011;29078;41.932;25.554;2022-10-17T16:48:57;19.73;;;8.20;;
43487;SDS011;29078;41.932;25.554;2022-10-17T16:51:23;16.13;;;7.35;;
43487;SDS011;29078;41.932;25.554;2022-10-17T16:53:49;14.68;;;7.57;;
43487;SDS011;29078;41.932;25.554;2022-10-17T16:56:21;16.52;;;8.43;;
43487;SDS011;29078;41.932;25.554;2022-10-17T16:58:48;12.15;;;7.50;;
43487;SDS011;29078;41.932;25.554;2022-10-17T17:01:18;11.45;;;7.07;;